• Join FlightAware (Why Join?)
  • Login
  • US Flag 
01:46PM EST


 

Airport Tracker/Info


-or-


 

Live Flight TrackerFlight Track Log ✈ CSN3678 ✈ 01-Jul-2012 ✈ ZYCC / CGQ - ZYTL / DLC

Flight Track Log - Related Links

Times and Time Zones

All times are in EDT time to prevent confusion due to time zone crossing. See the CSN3678 flight status page for this flight to view local times or setup timezone preferences in your user account.

Time Position Orientation Groundspeed Altitude Reporting Facility
EDT Latitude Longitude Course Direction KTS MPH feet Rate Location/Type
04:42AM 42.5163 124.1011 210° Southwest  Level Estimated
04:43AM 42.4235 124.0299 209° Southwest  Level Estimated
04:44AM 42.3306 123.9589 209° Southwest  Level Estimated
04:45AM 42.2377 123.8882 209° Southwest  Level Estimated
04:46AM 42.1447 123.8176 209° Southwest  Level Estimated
04:47AM 42.0517 123.7473 209° Southwest  Level Estimated
04:48AM 41.9586 123.6771 209° Southwest  Level Estimated
04:49AM 41.8655 123.6072 209° Southwest  Level Estimated
04:50AM 41.7724 123.5375 209° Southwest  Level Estimated
04:51AM 41.6792 123.4679 209° Southwest  Level Estimated
04:52AM 41.5860 123.3986 209° Southwest  Level Estimated
04:53AM 41.4927 123.3295 209° Southwest  Level Estimated
04:54AM 41.3994 123.2605 209° Southwest  Level Estimated
04:55AM 41.3061 123.1918 209° Southwest  Level Estimated
04:56AM 41.2127 123.1233 209° Southwest  Level Estimated
04:57AM 41.1192 123.0549 209° Southwest  Level Estimated
04:58AM 41.0258 122.9868 209° Southwest  Level Estimated
04:59AM 40.9323 122.9188 209° Southwest  Level Estimated
05:00AM 40.8387 122.8511 209° Southwest  Level Estimated
05:01AM 40.7451 122.7835 209° Southwest  Level Estimated
05:02AM 40.6515 122.7161 209° Southwest  Level Estimated
05:03AM 40.5578 122.6489 209° Southwest  Level Estimated
05:04AM 40.4641 122.5819 209° Southwest  Level Estimated
05:05AM 40.3704 122.5151 208° Southwest  Level Estimated
05:06AM 40.2766 122.4485 208° Southwest  Level Estimated
05:07AM 40.1828 122.3820 208° Southwest  Level Estimated
05:08AM 40.0889 122.3158 208° Southwest  Level Estimated
05:09AM 39.9950 122.2497 208° Southwest  Level Estimated
05:10AM 39.9011 122.1838 208° Southwest  Level Estimated
05:11AM 39.8071 122.1181 208° Southwest  Level Estimated
05:12AM 39.7131 122.0525 208° Southwest  Level Estimated
05:13AM 39.6190 121.9872 208° Southwest  Level Estimated
05:14AM 39.5249 121.9220 208° Southwest  Level Estimated
05:15AM 39.4308 121.8570 208° Southwest  Level Estimated
05:16AM 39.3367 121.7921 208° Southwest  Level Estimated
05:17AM 39.2425 121.7275 208° Southwest  Level Estimated
05:18AM 39.1483 121.6630 208° Southwest  Level Estimated
05:19AM 39.0540 121.5987 208° Southwest  Level Estimated
05:20AM 38.9597 121.5345 28° Northeast  Level Estimated
05:21AM 39.0540 121.5987 208° Southwest  Level Estimated
05:22AM 38.9597 121.5345 28° Northeast  Level Estimated
05:23AM 39.0540 121.5987 208° Southwest  Level Estimated
05:24AM 38.9597 121.5345 28° Northeast  Level Estimated
05:25AM 39.0540 121.5987 208° Southwest  Level Estimated
05:26AM 38.9597 121.5345 28° Northeast  Level Estimated
05:27AM 39.0540 121.5987 208° Southwest  Level Estimated
05:28AM 38.9597 121.5345 28° Northeast  Level Estimated
05:29AM 39.0540 121.5987 208° Southwest  Level Estimated
05:30AM 38.9597 121.5345 28° Northeast  Level Estimated
05:31AM 39.0540 121.5987 208° Southwest  Level Estimated
05:32AM 38.9597 121.5345 28° Northeast  Level Estimated
05:33AM 39.0540 121.5987 208° Southwest  Level Estimated
05:34AM 38.9597 121.5345 28° Northeast  Level Estimated
05:35AM 39.0540 121.5987 28° Northeast  Level Estimated